Time;durP1;ratioP1;P1;durP2;ratioP2;P2;SDS_P1;SDS_P2;PMS_P1;PMS_P2;Temp;Humidity;BMP_temperature;BMP_pressure;BME280_temperature;BME280_humidity;BME280_pressure;Samples;Min_cycle;Max_cycle;Signal;HPM_P1;HPM_P2
2022/06/11 00:01:47;;;;;;;112.40;106.53;;;;;;;16.81;69.64;97312.16;5075319;28;20292;-69
2022/06/11 00:04:20;;;;;;;77.93;73.63;;;;;;;16.71;70.22;97316.56;5075410;28;20196;-69
2022/06/11 00:06:49;;;;;;;48.93;46.20;;;;;;;16.76;70.19;97311.31;5075334;28;20630;-69
2022/06/11 00:09:16;;;;;;;34.70;32.50;;;;;;;16.71;70.91;97319.22;5075098;28;20201;-69
2022/06/11 00:11:42;;;;;;;27.50;25.90;;;;;;;16.74;70.91;97316.84;5075128;28;20201;-69
2022/06/11 00:14:08;;;;;;;29.77;28.17;;;;;;;16.61;71.73;97312.78;5075035;28;20646;-70
2022/06/11 00:16:33;;;;;;;43.13;40.53;;;;;;;16.63;72.20;97313.34;5075313;28;20212;-69
2022/06/11 00:19:00;;;;;;;93.37;88.20;;;;;;;16.45;73.27;97315.50;5074930;28;20193;-69
2022/06/11 00:21:30;;;;;;;169.00;160.07;;;;;;;16.49;72.67;97314.78;5072986;28;20650;-69
2022/06/11 00:23:56;;;;;;;179.13;169.73;;;;;;;16.58;72.83;97312.47;5075001;28;20193;-69
2022/06/11 00:26:22;;;;;;;126.17;119.40;;;;;;;16.46;73.11;97317.09;5074492;28;20174;-69
2022/06/11 00:28:48;;;;;;;87.43;82.83;;;;;;;16.46;73.06;97317.91;5074805;28;20199;-69
2022/06/11 00:31:13;;;;;;;52.17;49.03;;;;;;;16.35;73.63;97307.47;5056765;28;20545;-69
2022/06/11 00:33:39;;;;;;;50.03;47.03;;;;;;;16.58;72.35;97310.59;5075014;28;20192;-69
2022/06/11 00:36:06;;;;;;;58.37;55.07;;;;;;;16.63;72.30;97308.03;5074550;28;20192;-69
2022/06/11 00:38:33;;;;;;;86.97;82.40;;;;;;;16.50;73.07;97305.75;5074537;28;20232;-69
2022/06/11 00:41:00;;;;;;;101.47;95.73;;;;;;;16.46;73.72;97302.03;5073957;28;20235;-70
2022/06/11 00:43:28;;;;;;;53.90;50.83;;;;;;;16.63;73.49;97305.38;5074534;28;20213;-69
2022/06/11 00:46:31;;;;;;;61.70;58.20;;;;;;;16.28;75.65;97309.50;5074381;28;20193;-70
2022/06/11 00:48:56;;;;;;;213.23;202.00;;;;;;;16.32;76.22;97305.34;5074283;28;20250;-69
2022/06/11 00:51:24;;;;;;;194.80;184.43;;;;;;;16.35;76.58;97307.47;5068024;28;20620;-69
2022/06/11 00:53:59;;;;;;;256.73;242.67;;;;;;;16.22;77.54;97306.81;5069097;28;20190;-69
2022/06/11 00:56:33;;;;;;;190.70;180.50;;;;;;;16.49;75.85;97303.38;5074155;28;20169;-69
2022/06/11 00:59:02;;;;;;;179.43;169.73;;;;;;;16.42;75.38;97306.22;5074617;28;20187;-69
2022/06/11 01:01:29;;;;;;;162.30;153.50;;;;;;;16.36;75.42;97309.88;5074461;28;20186;-69
2022/06/11 01:03:58;;;;;;;144.47;136.57;;;;;;;16.32;75.75;97306.16;5074369;28;20185;-69
2022/06/11 01:06:35;;;;;;;130.93;123.80;;;;;;;16.43;74.84;97307.84;5073990;28;20189;-69
2022/06/11 01:09:01;;;;;;;113.13;107.00;;;;;;;16.08;76.91;97300.34;5073729;28;20255;-69
2022/06/11 01:11:48;;;;;;;94.83;89.60;;;;;;;16.20;76.55;97297.56;5074345;28;20181;-69
2022/06/11 01:14:17;;;;;;;66.43;62.67;;;;;;;16.07;77.34;97297.94;5073792;28;20181;-69
2022/06/11 01:17:15;;;;;;;110.33;104.27;;;;;;;16.02;77.70;97296.03;5073811;28;20537;-69
2022/06/11 01:20:17;;;;;;;134.97;127.33;;;;;;;16.18;76.46;97292.50;5073797;28;20196;-69
2022/06/11 01:22:45;;;;;;;52.50;49.47;;;;;;;15.83;78.96;97296.63;5070016;28;20524;-69
2022/06/11 01:25:36;;;;;;;222.73;210.67;;;;;;;15.91;79.24;97302.25;5073577;28;20612;-69
2022/06/11 01:28:19;;;;;;;208.33;196.67;;;;;;;15.94;79.31;97304.41;5074288;28;20204;-69
2022/06/11 01:30:54;;;;;;;64.87;60.97;;;;;;;15.97;79.07;97301.28;5073286;28;20170;-69
2022/06/11 01:33:51;;;;;;;61.53;57.83;;;;;;;15.99;79.14;97299.19;5059614;28;20576;-69
2022/06/11 01:36:21;;;;;;;95.70;90.43;;;;;;;15.76;80.51;97302.09;5073932;28;20200;-69
2022/06/11 01:39:12;;;;;;;118.93;112.53;;;;;;;15.87;79.36;97303.81;5073343;28;20224;-69
2022/06/11 01:41:46;;;;;;;131.80;124.50;;;;;;;15.87;79.86;97303.00;5073323;28;20616;-70
2022/06/11 01:44:18;;;;;;;149.50;141.50;;;;;;;15.74;80.45;97301.53;5073502;28;20173;-69
2022/06/11 01:46:48;;;;;;;149.97;142.00;;;;;;;15.63;80.88;97299.81;5073200;28;20185;-69
2022/06/11 01:49:23;;;;;;;142.70;135.03;;;;;;;15.50;81.69;97306.22;5073028;28;20292;-70
2022/06/11 01:52:03;;;;;;;133.80;126.53;;;;;;;15.46;81.75;97302.47;5069971;28;20230;-69
2022/06/11 01:55:07;;;;;;;129.67;122.70;;;;;;;15.27;82.54;97296.66;5073368;28;20181;-69
2022/06/11 01:57:56;;;;;;;129.53;122.43;;;;;;;15.16;82.95;97296.75;5022328;28;20227;-69
2022/06/11 02:00:26;;;;;;;101.77;96.03;;;;;;;15.39;82.54;97299.19;5073155;28;20645;-69
2022/06/11 02:03:26;;;;;;;77.67;73.23;;;;;;;15.29;82.38;97288.50;5071558;28;20551;-69
2022/06/11 02:05:57;;;;;;;115.80;109.27;;;;;;;15.29;81.38;97291.16;5073461;28;20193;-69
2022/06/11 02:08:47;;;;;;;112.73;106.23;;;;;;;15.39;79.70;97288.63;5073148;28;20247;-69
2022/06/11 02:11:26;;;;;;;103.20;97.63;;;;;;;15.37;77.79;97288.91;5073125;28;20231;-68
2022/06/11 02:14:03;;;;;;;92.40;87.27;;;;;;;15.47;77.13;97288.22;5073028;28;20169;-69
2022/06/11 02:16:41;;;;;;;138.40;130.57;;;;;;;15.65;75.62;97284.53;5072806;28;20288;-69
2022/06/11 02:19:15;;;;;;;110.73;104.70;;;;;;;15.40;75.89;97285.75;5072853;28;20178;-68
2022/06/11 02:21:50;;;;;;;113.17;107.07;;;;;;;15.44;75.27;97277.34;5070864;28;20197;-68
2022/06/11 02:24:22;;;;;;;137.60;130.20;;;;;;;15.41;74.97;97278.63;5072876;28;20173;-69
2022/06/11 02:26:52;;;;;;;140.23;132.43;;;;;;;15.52;74.27;97288.31;5072535;28;20197;-69
2022/06/11 02:29:20;;;;;;;157.47;149.13;;;;;;;15.67;74.25;97287.69;5072909;28;20200;-69
2022/06/11 02:31:50;;;;;;;123.50;116.90;;;;;;;15.68;74.26;97289.31;5072759;28;20185;-68
2022/06/11 02:34:18;;;;;;;109.40;103.20;;;;;;;15.71;74.37;97289.63;5072722;28;20182;-68
2022/06/11 02:36:55;;;;;;;230.77;218.20;;;;;;;15.58;75.85;97291.81;5072839;28;20181;-68
2022/06/11 02:39:22;;;;;;;67.47;63.50;;;;;;;15.48;77.01;97289.03;5072672;28;20692;-68
2022/06/11 02:41:48;;;;;;;82.63;78.13;;;;;;;15.49;77.05;97301.19;5072092;28;20268;-68
2022/06/11 02:44:14;;;;;;;98.57;92.80;;;;;;;15.42;77.34;97285.53;5072729;28;20177;-68
2022/06/11 02:46:45;;;;;;;90.80;85.90;;;;;;;15.42;76.76;97290.81;5072633;28;20196;-68
2022/06/11 02:49:22;;;;;;;80.87;76.33;;;;;;;15.62;75.24;97291.09;5072551;28;20707;-69
2022/06/11 02:51:50;;;;;;;79.27;74.87;;;;;;;15.40;75.58;97298.97;5071483;28;20189;-68
2022/06/11 02:54:16;;;;;;;121.23;114.73;;;;;;;15.49;74.66;97290.63;5073023;28;20193;-69
2022/06/11 02:56:43;;;;;;;142.13;134.43;;;;;;;15.25;75.32;97293.50;5072568;28;20212;-68
2022/06/11 02:59:09;;;;;;;133.33;125.97;;;;;;;15.48;74.52;97296.97;5072398;28;20189;-68
2022/06/11 03:01:35;;;;;;;66.37;62.67;;;;;;;15.43;75.04;97296.88;5054378;28;20181;-69
2022/06/11 03:04:01;;;;;;;87.13;82.33;;;;;;;15.33;75.89;97295.69;5072299;28;20222;-70
2022/06/11 03:06:27;;;;;;;91.20;86.17;;;;;;;15.25;76.36;97296.13;5072621;28;20189;-69
2022/06/11 03:08:55;;;;;;;89.47;84.60;;;;;;;15.17;76.10;97296.53;5071898;28;20232;-69
2022/06/11 03:11:20;;;;;;;92.13;87.13;;;;;;;15.09;76.77;97304.88;5071510;28;20193;-68
2022/06/11 03:13:46;;;;;;;86.80;82.07;;;;;;;15.03;77.04;97300.56;5073968;28;20751;-68
2022/06/11 03:16:12;;;;;;;78.53;74.10;;;;;;;15.23;74.85;97298.22;5076569;28;20181;-68
2022/06/11 03:18:37;;;;;;;85.60;80.83;;;;;;;15.24;74.77;97302.44;5076259;28;20192;-68
2022/06/11 03:21:03;;;;;;;83.67;79.03;;;;;;;15.25;74.95;97301.41;5061953;28;20272;-68
2022/06/11 03:23:29;;;;;;;72.43;68.47;;;;;;;15.04;76.28;97301.38;5076207;28;20532;-69
2022/06/11 03:25:55;;;;;;;88.73;83.97;;;;;;;15.06;77.12;97301.91;5076199;28;20181;-69
2022/06/11 03:28:25;;;;;;;94.67;89.40;;;;;;;14.97;77.90;97309.44;5075917;28;20289;-68
2022/06/11 03:30:51;;;;;;;97.70;92.30;;;;;;;14.82;78.63;97307.34;5076214;28;20192;-68
2022/06/11 03:33:17;;;;;;;94.27;88.83;;;;;;;14.97;78.12;97304.16;5075710;28;20246;-68
2022/06/11 03:35:44;;;;;;;85.03;80.23;;;;;;;15.20;77.16;97309.28;5076075;28;20185;-68
2022/06/11 03:38:11;;;;;;;80.70;76.13;;;;;;;15.13;77.44;97311.28;5075789;28;20244;-68
2022/06/11 03:40:36;;;;;;;121.63;115.13;;;;;;;15.28;76.02;97303.56;5067090;28;20189;-68
2022/06/11 03:43:03;;;;;;;122.50;115.83;;;;;;;15.37;75.55;97314.50;5057644;28;20194;-68
2022/06/11 03:45:28;;;;;;;88.80;83.90;;;;;;;15.55;74.59;97316.88;5075664;28;20391;-68
2022/06/11 03:47:54;;;;;;;79.77;75.17;;;;;;;15.83;72.91;97307.19;5075579;28;20181;-68
2022/06/11 03:50:24;;;;;;;81.60;76.97;;;;;;;15.84;72.90;97317.50;5074759;28;20201;-68
2022/06/11 03:52:51;;;;;;;74.50;70.47;;;;;;;15.95;73.07;97316.56;5075440;28;20178;-68
2022/06/11 03:55:17;;;;;;;159.30;150.87;;;;;;;16.08;72.73;97318.84;5075525;28;20576;-68
2022/06/11 03:57:44;;;;;;;115.63;109.33;;;;;;;16.30;71.12;97324.09;5058819;28;20654;-68
2022/06/11 04:00:13;;;;;;;180.13;170.47;;;;;;;16.23;70.61;97326.94;5075769;28;20288;-68
2022/06/11 04:02:39;;;;;;;173.20;163.93;;;;;;;16.04;72.21;97333.63;5075291;28;20666;-68
2022/06/11 04:05:06;;;;;;;136.57;129.40;;;;;;;15.89;72.30;97328.13;5075483;28;20180;-68
2022/06/11 04:07:31;;;;;;;130.70;123.47;;;;;;;16.21;71.34;97331.69;5075399;28;20181;-69
2022/06/11 04:09:57;;;;;;;87.53;82.83;;;;;;;16.60;70.20;97336.88;5075164;28;20205;-68
2022/06/11 04:12:23;;;;;;;113.93;107.70;;;;;;;16.67;69.71;97331.34;5075409;28;20184;-68
2022/06/11 04:14:49;;;;;;;149.45;141.43;;;;;;;16.47;70.45;97331.94;5075756;28;20189;-68
2022/06/11 04:17:28;;;;;;;123.22;116.47;;;;;;;16.55;70.37;97328.84;5074860;28;20191;-68
2022/06/11 04:19:54;;;;;;;127.05;120.20;;;;;;;16.83;69.00;97331.22;5073270;28;20219;-68
2022/06/11 04:22:20;;;;;;;158.00;149.70;;;;;;;17.37;66.72;97328.44;5074862;28;20216;-68
2022/06/11 04:24:46;;;;;;;336.20;317.13;;;;;;;16.72;68.78;97336.72;5074122;28;20259;-68
2022/06/11 04:27:14;;;;;;;538.30;505.00;;;;;;;17.28;66.86;97333.41;5074713;28;20192;-68
2022/06/11 04:29:44;;;;;;;518.35;486.75;;;;;;;17.54;65.86;97334.38;5074855;28;20624;-68
2022/06/11 04:32:15;;;;;;;393.20;369.23;;;;;;;17.94;64.45;97333.00;5074592;28;20532;-68
2022/06/11 04:34:41;;;;;;;238.48;224.27;;;;;;;17.71;64.48;97336.88;5074793;28;20196;-67
2022/06/11 04:37:08;;;;;;;216.77;204.75;;;;;;;18.46;62.47;97340.81;5074630;28;20237;-69
2022/06/11 04:39:33;;;;;;;212.80;201.40;;;;;;;18.47;61.70;97345.88;5074584;28;20192;-70
2022/06/11 04:42:00;;;;;;;254.13;240.88;;;;;;;18.43;61.89;97339.50;5073706;28;20201;-68
2022/06/11 04:44:26;;;;;;;238.80;226.38;;;;;;;18.95;60.16;97341.13;5074376;28;20227;-68
2022/06/11 04:46:52;;;;;;;201.50;190.95;;;;;;;18.62;60.88;97342.47;5074699;28;20189;-68
2022/06/11 04:49:19;;;;;;;157.43;148.90;;;;;;;18.67;60.26;97342.47;5074277;28;20689;-68
2022/06/11 04:51:44;;;;;;;138.02;130.70;;;;;;;18.67;60.50;97343.25;5062551;28;20185;-68
2022/06/11 04:54:10;;;;;;;172.48;163.27;;;;;;;18.70;60.39;97341.94;5074316;28;20181;-69
2022/06/11 04:56:36;;;;;;;264.10;250.43;;;;;;;18.83;60.04;97343.28;5074266;28;20280;-68
2022/06/11 04:59:03;;;;;;;263.92;249.85;;;;;;;18.56;61.16;97346.97;5074254;28;20300;-68
2022/06/11 05:01:29;;;;;;;334.17;316.25;;;;;;;19.46;58.44;97352.56;5073909;28;20201;-69
2022/06/11 05:03:55;;;;;;;311.60;295.23;;;;;;;19.28;58.80;97353.88;5074096;28;20188;-68
2022/06/11 05:06:24;;;;;;;318.90;301.88;;;;;;;19.49;58.86;97347.50;5074143;28;20259;-68
2022/06/11 05:08:49;;;;;;;387.35;367.23;;;;;;;19.83;57.35;97347.69;5073871;28;20209;-68
2022/06/11 05:11:15;;;;;;;341.35;323.88;;;;;;;20.05;56.92;97354.50;5073433;28;20192;-68
2022/06/11 05:13:40;;;;;;;293.38;278.17;;;;;;;20.35;56.40;97346.38;5073437;28;20209;-69
2022/06/11 05:16:06;;;;;;;275.85;261.27;;;;;;;20.79;55.47;97349.03;5073250;28;20186;-68
2022/06/11 05:18:32;;;;;;;237.27;224.93;;;;;;;20.63;55.33;97351.00;5071769;28;20198;-68
2022/06/11 05:20:58;;;;;;;219.52;208.10;;;;;;;20.68;54.97;97358.16;5073513;28;20188;-68
2022/06/11 05:23:23;;;;;;;220.90;209.20;;;;;;;20.56;54.92;97361.16;5073346;28;20239;-68
2022/06/11 05:25:50;;;;;;;196.43;186.40;;;;;;;20.94;54.06;97358.78;5073059;28;20234;-69
2022/06/11 05:28:26;;;;;;;206.90;196.45;;;;;;;21.22;52.62;97365.25;5072831;28;20203;-68
2022/06/11 05:30:52;;;;;;;186.85;177.48;;;;;;;20.97;54.12;97352.91;5073731;28;20180;-68
2022/06/11 05:33:18;;;;;;;223.95;212.35;;;;;;;21.02;53.47;97364.31;5073940;28;20269;-69
2022/06/11 05:35:45;;;;;;;226.95;215.75;;;;;;;21.51;52.78;97363.41;5073584;28;20207;-68
2022/06/11 05:38:13;;;;;;;253.02;240.55;;;;;;;20.79;54.39;97359.69;5073321;28;20236;-69
2022/06/11 05:40:41;;;;;;;213.05;202.40;;;;;;;21.14;53.50;97359.44;5073392;28;20201;-68
2022/06/11 05:43:08;;;;;;;218.88;208.00;;;;;;;21.78;52.16;97357.50;5073550;28;20189;-68
2022/06/11 05:45:43;;;;;;;315.98;299.52;;;;;;;21.63;51.66;97360.31;5073577;28;20185;-69
2022/06/11 05:48:10;;;;;;;389.02;367.45;;;;;;;21.72;51.68;97364.75;5073012;28;20196;-69
2022/06/11 05:50:40;;;;;;;367.20;347.20;;;;;;;21.90;51.15;97371.25;5072941;28;20204;-69
2022/06/11 05:53:07;;;;;;;379.75;359.27;;;;;;;21.95;51.32;97368.53;5055017;28;20189;-69
2022/06/11 05:55:34;;;;;;;555.45;522.58;;;;;;;22.22;49.91;97375.97;5072772;28;20184;-69
2022/06/11 05:58:01;;;;;;;559.58;526.15;;;;;;;21.74;51.80;97380.47;5073104;28;20193;-68
2022/06/11 06:00:28;;;;;;;549.33;516.67;;;;;;;21.65;51.22;97374.19;5072968;28;20196;-69
2022/06/11 06:02:54;;;;;;;541.63;509.08;;;;;;;21.56;51.71;97382.00;5072521;28;20184;-68
2022/06/11 06:05:24;;;;;;;536.95;505.70;;;;;;;21.62;51.63;97378.22;5072253;28;20577;-68
2022/06/11 06:07:49;;;;;;;543.97;512.30;;;;;;;22.26;50.69;97376.97;5072687;28;20281;-69
2022/06/11 06:10:15;;;;;;;533.95;502.90;;;;;;;22.56;49.55;97373.09;5072260;28;20305;-68
2022/06/11 06:12:40;;;;;;;447.13;421.08;;;;;;;22.23;49.97;97381.03;5072763;28;20177;-68
2022/06/11 06:15:09;;;;;;;455.00;428.55;;;;;;;22.62;49.60;97379.97;5072263;28;20603;-68
2022/06/11 06:17:35;;;;;;;514.90;484.73;;;;;;;22.62;48.91;97382.63;5072247;28;20213;-68
2022/06/11 06:20:01;;;;;;;531.60;500.45;;;;;;;22.80;49.26;97382.66;5070562;28;20247;-68
2022/06/11 06:22:26;;;;;;;545.28;513.20;;;;;;;23.09;48.81;97382.47;5072344;28;20189;-68
2022/06/11 06:24:52;;;;;;;582.05;547.35;;;;;;;22.87;49.16;97387.63;5072695;28;20181;-68
2022/06/11 06:27:17;;;;;;;530.40;498.63;;;;;;;23.28;48.61;97376.28;5072778;28;20699;-71
2022/06/11 06:29:42;;;;;;;496.33;468.23;;;;;;;23.02;49.73;97391.94;5072060;28;20666;-68
2022/06/11 06:32:08;;;;;;;512.85;483.25;;;;;;;22.65;51.02;97387.41;5071953;28;20685;-67
2022/06/11 06:34:33;;;;;;;530.72;499.77;;;;;;;22.78;50.70;97398.19;5071644;28;20607;-68
2022/06/11 06:36:59;;;;;;;531.58;500.58;;;;;;;23.00;50.34;97394.13;5071740;28;20227;-67
2022/06/11 06:39:24;;;;;;;597.38;561.33;;;;;;;23.10;49.67;97389.41;5072073;28;20185;-67
2022/06/11 06:41:49;;;;;;;649.92;610.40;;;;;;;23.08;49.25;97393.44;5070906;28;20188;-68
2022/06/11 06:44:16;;;;;;;631.42;593.85;;;;;;;23.01;49.59;97393.06;5072337;28;20181;-68
2022/06/11 06:46:42;;;;;;;653.80;614.40;;;;;;;23.15;49.30;97401.91;5072560;28;20204;-68
2022/06/11 06:49:08;;;;;;;587.90;554.33;;;;;;;23.12;49.09;97395.28;5070753;28;20248;-68
2022/06/11 06:51:34;;;;;;;570.88;537.70;;;;;;;23.56;48.46;97400.19;5072524;28;20638;-68
2022/06/11 06:54:00;;;;;;;637.58;599.20;;;;;;;23.33;49.41;97400.28;5071842;28;20527;-68
2022/06/11 06:56:29;;;;;;;651.72;611.67;;;;;;;23.76;47.97;97407.03;5054586;28;20189;-68
2022/06/11 06:58:56;;;;;;;622.13;584.85;;;;;;;23.74;47.79;97400.41;5072768;28;20230;-68
2022/06/11 07:01:22;;;;;;;638.33;599.85;;;;;;;23.84;48.50;97409.03;5072130;28;20557;-68
2022/06/11 07:03:47;;;;;;;481.20;454.20;;;;;;;23.81;47.66;97400.78;5071760;28;20221;-68
2022/06/11 07:06:12;;;;;;;424.27;401.55;;;;;;;23.84;47.49;97397.53;5072068;28;20220;-68
2022/06/11 07:08:38;;;;;;;432.38;409.42;;;;;;;23.86;47.14;97401.50;5072234;28;20220;-68
2022/06/11 07:11:03;;;;;;;456.77;431.58;;;;;;;23.98;46.75;97395.66;5072162;28;20634;-69
2022/06/11 07:13:29;;;;;;;454.67;429.05;;;;;;;23.92;47.06;97396.84;5072575;28;20208;-68
2022/06/11 07:15:56;;;;;;;454.45;428.02;;;;;;;24.32;46.94;97397.94;5072302;28;20580;-68
2022/06/11 07:18:36;;;;;;;416.40;393.42;;;;;;;24.49;46.56;97389.28;5069854;28;20243;-68
2022/06/11 07:21:06;;;;;;;399.15;377.73;;;;;;;24.45;46.06;97391.78;5072558;28;20181;-70
2022/06/11 07:23:36;;;;;;;385.35;364.30;;;;;;;24.40;46.53;97394.56;5072285;28;20185;-68
2022/06/11 07:26:08;;;;;;;381.58;360.27;;;;;;;24.37;47.06;97390.59;5072542;28;20178;-69
2022/06/11 07:28:39;;;;;;;382.35;361.83;;;;;;;24.70;46.49;97401.13;5072099;28;20285;-68
2022/06/11 07:31:05;;;;;;;370.35;350.65;;;;;;;24.74;46.29;97404.81;5072234;28;20185;-68
2022/06/11 07:33:30;;;;;;;333.88;316.45;;;;;;;24.77;45.59;97393.47;5071763;28;20223;-68
2022/06/11 07:35:56;;;;;;;324.52;307.65;;;;;;;24.72;46.06;97399.75;5071982;28;20634;-68
2022/06/11 07:38:22;;;;;;;332.92;315.45;;;;;;;24.80;45.62;97396.34;5071763;28;20236;-68
2022/06/11 07:40:48;;;;;;;334.52;317.15;;;;;;;25.01;45.91;97387.88;5071587;28;20618;-69
2022/06/11 07:43:14;;;;;;;334.50;316.60;;;;;;;25.11;45.97;97391.09;5054196;28;20273;-70
2022/06/11 07:45:42;;;;;;;296.83;281.60;;;;;;;24.84;46.25;97401.91;5072250;28;20173;-69
2022/06/11 07:48:09;;;;;;;273.98;260.08;;;;;;;25.11;45.30;97399.16;5071860;28;20696;-68
2022/06/11 07:50:37;;;;;;;231.13;219.25;;;;;;;25.04;45.41;97401.47;5071037;28;20232;-68
2022/06/11 07:53:05;;;;;;;199.15;188.75;;;;;;;25.20;44.48;97405.34;5053652;28;20190;-68
2022/06/11 07:55:31;;;;;;;202.80;192.15;;;;;;;25.01;45.80;97398.59;5072342;28;20185;-68
2022/06/11 07:57:58;;;;;;;223.68;212.32;;;;;;;24.94;46.29;97398.22;5071938;28;20180;-69
2022/06/11 08:00:30;;;;;;;217.55;206.25;;;;;;;24.56;46.36;97403.88;5072833;28;20185;-68
2022/06/11 08:02:56;;;;;;;290.02;275.02;;;;;;;24.79;46.16;97402.03;5075306;28;20174;-69
2022/06/11 08:05:22;;;;;;;366.02;346.48;;;;;;;24.29;47.74;97406.59;5075584;28;20664;-69
2022/06/11 08:07:48;;;;;;;418.48;395.60;;;;;;;24.06;48.55;97400.31;5075198;28;20212;-68
2022/06/11 08:10:14;;;;;;;486.75;460.10;;;;;;;23.61;49.38;97410.00;5077208;28;20657;-68
2022/06/11 08:12:40;;;;;;;549.33;518.47;;;;;;;24.08;48.74;97400.00;5078916;28;20223;-68
2022/06/11 08:15:07;;;;;;;564.08;532.10;;;;;;;23.53;49.79;97402.63;5073827;28;20193;-69
2022/06/11 08:17:33;;;;;;;496.00;467.60;;;;;;;24.13;48.03;97399.94;5071015;28;20196;-68
2022/06/11 08:20:00;;;;;;;504.25;475.20;;;;;;;23.92;48.60;97399.50;5075002;28;20204;-69
2022/06/11 08:22:26;;;;;;;528.08;497.17;;;;;;;24.06;47.96;97391.50;5073188;28;20246;-68
2022/06/11 08:24:51;;;;;;;602.83;563.92;;;;;;;24.09;47.56;97405.06;5074328;28;20193;-69
2022/06/11 08:27:17;;;;;;;479.95;452.23;;;;;;;24.30;47.10;97400.13;5074578;28;20185;-69
2022/06/11 08:29:43;;;;;;;564.90;532.00;;;;;;;23.92;47.93;97402.19;5073975;28;20227;-69
2022/06/11 08:32:10;;;;;;;555.20;523.15;;;;;;;24.19;47.25;97398.75;5074181;28;20692;-69
2022/06/11 08:34:41;;;;;;;530.75;499.88;;;;;;;24.72;46.52;97401.63;5074329;28;20323;-69
2022/06/11 08:37:08;;;;;;;550.13;518.17;;;;;;;24.00;48.24;97404.19;5073909;28;21992;-69
2022/06/11 08:39:34;;;;;;;521.42;491.92;;;;;;;23.93;48.12;97409.13;5064293;28;20197;-68
2022/06/11 08:41:59;;;;;;;548.28;516.58;;;;;;;24.87;46.46;97395.94;5073497;28;20242;-69
2022/06/11 08:44:27;;;;;;;533.90;503.95;;;;;;;23.85;48.83;97407.16;5071652;28;20520;-68
2022/06/11 08:46:57;;;;;;;534.45;503.92;;;;;;;23.76;48.74;97407.03;5072245;28;20181;-69
2022/06/11 08:49:41;;;;;;;558.60;526.55;;;;;;;23.11;50.26;97393.69;5077849;28;20281;-68
2022/06/11 08:52:20;;;;;;;491.67;463.40;;;;;;;23.99;48.60;97394.56;5081771;28;20178;-69
2022/06/11 08:54:47;;;;;;;512.47;482.55;;;;;;;23.59;49.00;97401.47;5073548;28;20238;-73
2022/06/11 08:57:15;;;;;;;299.38;281.40;;;;;;;23.69;49.47;97403.94;5068002;28;20602;-68
2022/06/11 08:59:47;;;;;;;272.15;258.00;;;;;;;23.95;48.61;97402.41;5071724;28;20189;-69
2022/06/11 09:02:33;;;;;;;203.25;192.95;;;;;;;24.15;48.81;97392.38;5074039;28;20177;-68
2022/06/11 09:05:29;;;;;;;213.82;202.85;;;;;;;23.94;48.96;97394.66;5074114;28;20185;-68
2022/06/11 09:08:15;;;;;;;303.80;287.45;;;;;;;23.38;48.64;97392.97;5073703;28;20644;-68
2022/06/11 09:11:07;;;;;;;206.30;195.88;;;;;;;23.55;48.91;97389.75;5069525;28;20188;-67
2022/06/11 09:13:54;;;;;;;189.32;179.40;;;;;;;23.89;49.16;97397.44;5073910;28;20173;-68
2022/06/11 09:16:55;;;;;;;184.77;175.23;;;;;;;23.75;48.16;97386.69;5072034;28;20189;-68
2022/06/11 09:19:51;;;;;;;189.68;179.70;;;;;;;23.65;48.59;97391.44;5063270;28;20192;-67
2022/06/11 09:22:47;;;;;;;191.40;181.30;;;;;;;23.48;49.22;97389.34;5067378;28;20188;-68
2022/06/11 09:25:29;;;;;;;220.35;208.85;;;;;;;23.80;48.31;97383.13;5072998;28;20177;-68
2022/06/11 09:28:01;;;;;;;538.67;506.48;;;;;;;24.58;45.94;97380.22;5073375;28;20227;-68
2022/06/11 09:30:41;;;;;;;476.73;448.73;;;;;;;25.06;44.63;97379.69;5072705;28;20205;-68
2022/06/11 09:33:25;;;;;;;573.78;539.63;;;;;;;25.38;46.02;97381.31;5073193;28;20633;-69
2022/06/11 09:35:58;;;;;;;309.95;293.33;;;;;;;25.57;43.50;97377.38;5055828;28;20630;-69
2022/06/11 09:38:35;;;;;;;210.77;199.52;;;;;;;23.99;45.20;97378.50;5067352;28;20392;-68
2022/06/11 09:41:04;;;;;;;183.55;173.82;;;;;;;23.78;45.84;97385.34;5068497;28;20173;-69
2022/06/11 09:43:51;;;;;;;186.85;176.48;;;;;;;23.90;45.62;97386.44;5072539;28;20192;-69
2022/06/11 09:46:37;;;;;;;176.68;167.45;;;;;;;24.24;44.59;97377.22;5066818;28;20192;-69
2022/06/11 09:49:14;;;;;;;161.20;152.90;;;;;;;24.87;43.93;97377.16;5066828;28;20613;-69
2022/06/11 09:51:58;;;;;;;124.20;117.63;;;;;;;23.49;46.13;97381.03;5055828;28;20185;-69
2022/06/11 09:54:34;;;;;;;114.35;108.30;;;;;;;23.60;45.64;97376.28;5073331;28;20668;-69
2022/06/11 09:57:40;;;;;;;110.35;104.38;;;;;;;23.96;45.99;97389.81;5073344;28;20184;-71
2022/06/11 10:00:19;;;;;;;147.93;139.98;;;;;;;23.37;46.30;97380.66;5022497;28;20194;-70
2022/06/11 10:05:28;;;;;;;142.02;134.02;;;;;;;24.01;44.99;97387.03;5073527;28;20599;-71
2022/06/11 10:08:05;;;;;;;166.05;156.80;;;;;;;24.11;44.64;97384.16;5072872;28;20216;-70
2022/06/11 10:10:36;;;;;;;158.63;149.95;;;;;;;24.35;44.25;97389.31;5073309;28;20197;-70
2022/06/11 10:13:08;;;;;;;150.40;142.35;;;;;;;24.37;43.93;97379.88;5061872;28;20193;-70
2022/06/11 10:15:40;;;;;;;133.15;125.82;;;;;;;24.58;43.71;97387.47;5071961;28;20177;-70
2022/06/11 10:18:19;;;;;;;114.53;108.32;;;;;;;24.86;43.19;97386.28;5064672;28;20217;-70
2022/06/11 10:21:02;;;;;;;163.52;155.27;;;;;;;24.20;44.56;97386.94;5073112;28;20181;-70
2022/06/11 10:23:45;;;;;;;204.10;193.48;;;;;;;24.19;44.32;97391.50;5052065;28;20766;-70
2022/06/11 10:26:22;;;;;;;96.70;91.47;;;;;;;24.40;44.48;97394.56;5054658;28;20173;-70
2022/06/11 10:29:18;;;;;;;125.15;118.53;;;;;;;24.58;43.97;97390.94;5072348;28;20196;-70
2022/06/11 10:31:48;;;;;;;123.18;116.65;;;;;;;24.75;43.47;97380.38;5069030;28;20173;-70
2022/06/11 10:34:26;;;;;;;206.40;195.90;;;;;;;24.83;43.30;97385.03;5072114;28;20533;-70
2022/06/11 10:37:12;;;;;;;84.35;79.85;;;;;;;24.81;43.93;97381.03;5071356;28;20211;-69
2022/06/11 10:40:06;;;;;;;97.80;92.55;;;;;;;24.23;44.56;97389.03;5072212;28;20240;-70
2022/06/11 10:42:52;;;;;;;82.47;78.00;;;;;;;24.59;44.25;97394.41;5070342;28;21010;-69
2022/06/11 10:45:17;;;;;;;83.53;78.88;;;;;;;24.06;45.25;97383.44;5071724;28;20307;-69
2022/06/11 10:47:46;;;;;;;84.75;80.20;;;;;;;24.39;44.58;97383.06;5072389;28;20280;-69
2022/06/11 10:50:12;;;;;;;114.38;108.57;;;;;;;24.81;43.29;97376.47;5050803;28;20275;-68
2022/06/11 10:52:59;;;;;;;87.20;82.45;;;;;;;25.13;43.19;97374.72;5071529;28;20257;-68
2022/06/11 10:55:34;;;;;;;162.68;154.43;;;;;;;24.74;43.18;97369.97;5071930;28;20204;-68
2022/06/11 10:58:10;;;;;;;227.45;215.63;;;;;;;25.49;42.43;97380.75;5070735;28;20208;-68
2022/06/11 11:00:47;;;;;;;728.70;675.38;;;;;;;25.86;40.81;97367.97;5071384;28;20169;-68
2022/06/11 11:03:20;;;;;;;911.58;843.10;;;;;;;25.18;41.48;97361.97;5071771;28;20181;-68
2022/06/11 11:06:07;;;;;;;915.28;848.20;;;;;;;25.21;42.56;97365.91;5071693;28;20177;-68
2022/06/11 11:08:35;;;;;;;895.05;828.95;;;;;;;25.62;41.68;97363.00;5065100;28;20188;-68
2022/06/11 11:11:01;;;;;;;895.97;830.58;;;;;;;25.67;40.66;97362.88;5071140;28;20283;-68
2022/06/11 11:13:42;;;;;;;961.15;892.25;;;;;;;26.09;40.36;97361.41;5055559;28;20193;-68
2022/06/11 11:16:13;;;;;;;744.10;691.47;;;;;;;25.77;41.06;97357.22;5069492;28;20188;-68
2022/06/11 11:19:02;;;;;;;754.50;702.78;;;;;;;25.57;40.94;97347.03;5072044;28;20189;-68
2022/06/11 11:21:48;;;;;;;743.70;695.60;;;;;;;25.80;41.07;97347.75;5071896;28;20537;-68
2022/06/11 11:24:17;;;;;;;711.00;662.33;;;;;;;25.59;40.60;97350.19;5059260;28;20189;-68
2022/06/11 11:27:00;;;;;;;548.40;511.67;;;;;;;25.18;41.13;97355.78;5072228;28;20189;-68